Time,TemperatureF,DewpointF,PressureIn,WindDirection,WindDirectionDegrees,WindSpeedMPH,WindSpeedGustMPH,Humidity,HourlyPrecipIn,Conditions,Clouds,dailyrainin,SoftwareType,DateUTC
2013-01-27 00:01:00,26.4,15.5,29.95,South,171,15.3,22.0,63,0.00,SCT,SKC,0.00,WeatherDisplay:10.37,2013-01-27 06:01:00,
2013-01-27 00:06:00,26.5,15.6,29.95,SSE,162,15.0,22.0,63,0.00,SCT,SKC,0.00,WeatherDisplay:10.37,2013-01-27 06:06:00,
2013-01-27 00:11:00,26.5,16.0,29.94,South,169,13.6,18.0,64,0.00,SCT,SKC,0.00,WeatherDisplay:10.37,2013-01-27 06:11:00,
2013-01-27 00:16:00,26.6,16.1,29.94,South,169,15.3,19.6,64,0.00,SCT,SKC,0.00,WeatherDisplay:10.37,2013-01-27 06:16:00,
2013-01-27 00:21:00,26.5,16.0,29.94,SSE,158,14.0,22.0,64,0.00,SCT,SKC,0.00,WeatherDisplay:10.37,2013-01-27 06:21:00,
2013-01-27 00:26:00,26.5,16.0,29.94,SSE,164,12.6,18.4,64,0.00,SCT,SKC,0.00,WeatherDisplay:10.37,2013-01-27 06:26:00,
2013-01-27 00:31:00,26.5,16.0,29.94,SSE,165,13.3,17.3,64,0.00,SCT,SKC,0.00,WeatherDisplay:10.37,2013-01-27 06:31:00,
2013-01-27 00:36:00,26.5,15.9,29.94,SSE,158,14.0,20.0,64,0.00,SCT,SKC,0.00,WeatherDisplay:10.37,2013-01-27 06:36:00,
2013-01-27 00:41:00,26.6,16.1,29.94,SSE,157,13.0,19.6,64,0.00,BKN,SKC,0.00,WeatherDisplay:10.37,2013-01-27 06:41:00,
2013-01-27 00:46:00,26.7,16.1,29.94,SE,139,13.3,18.4,64,0.00,BKN,SKC,0.00,WeatherDisplay:10.37,2013-01-27 06:46:00,
2013-01-27 00:51:00,26.8,16.2,29.94,SSE,158,13.4,16.1,64,0.00,BKN,SKC,0.00,WeatherDisplay:10.37,2013-01-27 06:51:00,
2013-01-27 00:56:00,26.7,16.1,29.94,South,175,14.0,18.0,64,0.00,BKN,SKC,0.00,WeatherDisplay:10.37,2013-01-27 06:56:00,
2013-01-27 01:01:00,26.9,16.3,29.94,South,169,15.8,19.6,64,0.00,BKN,SKC,0.00,WeatherDisplay:10.37,2013-01-27 07:01:00,
2013-01-27 01:06:00,26.8,16.3,29.94,SSE,162,13.0,20.0,64,0.00,BKN,SKC,0.00,WeatherDisplay:10.37,2013-01-27 07:06:00,
2013-01-27 01:13:00,26.8,16.2,29.93,SSE,165,13.3,17.3,64,0.00,BKN,SKC,0.00,WeatherDisplay:10.37,2013-01-27 07:13:00,
2013-01-27 01:19:00,26.8,16.6,29.93,South,171,11.4,17.3,65,0.00,BKN,SKC,0.00,WeatherDisplay:10.37,2013-01-27 07:19:00,
2013-01-27 01:24:00,26.6,16.4,29.93,SSE,160,13.0,17.3,65,0.00,BKN,SKC,0.00,WeatherDisplay:10.37,2013-01-27 07:24:00,
2013-01-27 01:29:00,26.5,16.3,29.93,SSE,161,11.3,15.0,65,0.00,BKN,SKC,0.00,WeatherDisplay:10.37,2013-01-27 07:29:00,
2013-01-27 01:34:00,26.5,16.3,29.93,SE,144,12.8,16.1,65,0.00,BKN,SKC,0.00,WeatherDisplay:10.37,2013-01-27 07:34:00,
2013-01-27 01:39:00,26.4,16.2,29.93,SSE,161,10.8,15.0,65,0.00,BKN,SKC,0.00,WeatherDisplay:10.37,2013-01-27 07:39:00,
2013-01-27 01:44:00,26.4,16.2,29.93,SSE,154,10.5,14.0,65,0.00,SCT,SKC,0.00,WeatherDisplay:10.37,2013-01-27 07:44:00,
2013-01-27 01:49:00,26.3,16.5,29.93,SE,143,9.0,13.8,66,0.00,SCT,SKC,0.00,WeatherDisplay:10.37,2013-01-27 07:49:00,
2013-01-27 01:54:00,26.0,16.2,29.93,SE,139,8.9,11.5,66,0.00,SCT,SKC,0.00,WeatherDisplay:10.37,2013-01-27 07:54:00,
2013-01-27 01:59:00,25.7,16.3,29.93,SSE,150,8.7,11.5,67,0.00,SCT,SKC,0.00,WeatherDisplay:10.37,2013-01-27 07:59:00,
2013-01-27 02:04:00,25.5,16.1,29.93,SSE,155,10.3,12.0,67,0.00,CLR,SKC,0.00,WeatherDisplay:10.37,2013-01-27 08:04:00,
2013-01-27 02:09:00,25.5,16.1,29.93,SSE,153,8.1,11.5,67,0.00,CLR,SKC,0.00,WeatherDisplay:10.37,2013-01-27 08:09:00,
2013-01-27 02:14:00,25.5,16.1,29.93,SE,143,9.4,15.0,67,0.00,CLR,SKC,0.00,WeatherDisplay:10.37,2013-01-27 08:14:00,
2013-01-27 02:19:00,25.4,16.3,29.93,SSE,153,9.5,12.0,68,0.00,CLR,SKC,0.00,WeatherDisplay:10.37,2013-01-27 08:19:00,
2013-01-27 02:24:00,25.5,16.4,29.93,SSE,163,10.9,15.0,68,0.00,CLR,SKC,0.00,WeatherDisplay:10.37,2013-01-27 08:24:00,
2013-01-27 02:29:00,25.4,16.3,29.93,South,172,8.1,11.5,68,0.00,CLR,SKC,0.00,WeatherDisplay:10.37,2013-01-27 08:29:00,
2013-01-27 02:34:00,25.2,16.1,29.93,SSE,168,9.9,12.0,68,0.00,CLR,SKC,0.00,WeatherDisplay:10.37,2013-01-27 08:34:00,
2013-01-27 02:39:00,25.2,16.1,29.93,SSE,159,9.1,11.5,68,0.00,CLR,SKC,0.00,WeatherDisplay:10.37,2013-01-27 08:39:00,
2013-01-27 02:44:00,25.1,16.4,29.92,SSE,159,9.6,13.0,69,0.00,CLR,SKC,0.00,WeatherDisplay:10.37,2013-01-27 08:44:00,
2013-01-27 02:49:00,25.1,16.4,29.92,SSE,147,10.5,13.8,69,0.00,CLR,SKC,0.00,WeatherDisplay:10.37,2013-01-27 08:49:00,
2013-01-27 02:54:00,25.0,16.3,29.92,SSE,161,8.0,11.5,69,0.00,CLR,SKC,0.00,WeatherDisplay:10.37,2013-01-27 08:54:00,
2013-01-27 02:59:00,24.9,16.2,29.92,SSE,147,9.9,13.0,69,0.00,CLR,SKC,0.00,WeatherDisplay:10.37,2013-01-27 08:59:00,
2013-01-27 03:04:00,24.9,16.2,29.92,SSE,159,9.5,15.0,69,0.00,CLR,SKC,0.00,WeatherDisplay:10.37,2013-01-27 09:04:00,
2013-01-27 03:09:00,24.8,16.1,29.91,SSE,159,11.5,14.0,69,0.00,CLR,SKC,0.00,WeatherDisplay:10.37,2013-01-27 09:09:00,
2013-01-27 03:14:00,24.9,16.2,29.91,South,171,11.1,14.0,69,0.00,CLR,SKC,0.00,WeatherDisplay:10.37,2013-01-27 09:14:00,
2013-01-27 03:19:00,25.0,16.3,29.91,SSE,150,10.1,13.8,69,0.00,CLR,SKC,0.00,WeatherDisplay:10.37,2013-01-27 09:19:00,
2013-01-27 03:24:00,25.0,16.3,29.90,SSE,164,9.2,13.0,69,0.00,SCT,SKC,0.00,WeatherDisplay:10.37,2013-01-27 09:24:00,
2013-01-27 03:29:00,24.9,16.5,29.90,SSE,155,8.2,11.5,70,0.00,SCT,SKC,0.00,WeatherDisplay:10.37,2013-01-27 09:29:00,
2013-01-27 03:34:00,24.8,16.4,29.90,SSE,150,8.7,15.0,70,0.00,SCT,SKC,0.00,WeatherDisplay:10.37,2013-01-27 09:34:00,
2013-01-27 03:39:00,24.9,16.5,29.89,SSE,156,9.9,13.0,70,0.00,SCT,SKC,0.00,WeatherDisplay:10.37,2013-01-27 09:39:00,
2013-01-27 03:44:00,25.1,16.7,29.89,SSE,157,9.3,13.8,70,0.00,SCT,SKC,0.00,WeatherDisplay:10.37,2013-01-27 09:44:00,
2013-01-27 03:49:00,25.1,16.7,29.89,SSE,153,10.3,15.0,70,0.00,SCT,SKC,0.00,WeatherDisplay:10.37,2013-01-27 09:49:00,
2013-01-27 03:54:00,25.1,16.7,29.89,SE,133,9.9,13.0,70,0.00,SCT,SKC,0.00,WeatherDisplay:10.37,2013-01-27 09:54:00,
2013-01-27 03:59:00,25.0,16.6,29.89,SE,139,12.5,17.3,70,0.00,SCT,SKC,0.00,WeatherDisplay:10.37,2013-01-27 09:59:00,
2013-01-27 04:04:00,24.9,16.5,29.88,SSE,154,11.5,16.1,70,0.00,CLR,SKC,0.00,WeatherDisplay:10.37,2013-01-27 10:04:00,
2013-01-27 04:09:00,24.9,16.5,29.88,SE,141,12.8,15.0,70,0.00,CLR,SKC,0.00,WeatherDisplay:10.37,2013-01-27 10:09:00,
2013-01-27 04:14:00,25.0,16.6,29.88,SSE,147,11.4,16.1,70,0.00,CLR,SKC,0.00,WeatherDisplay:10.37,2013-01-27 10:14:00,
2013-01-27 04:19:00,24.9,16.5,29.87,SSE,162,11.2,13.0,70,0.00,CLR,SKC,0.00,WeatherDisplay:10.37,2013-01-27 10:19:00,
2013-01-27 04:24:00,24.9,16.5,29.87,SSE,154,11.6,15.0,70,0.00,CLR,SKC,0.00,WeatherDisplay:10.37,2013-01-27 10:24:00,
2013-01-27 04:29:00,24.9,16.8,29.87,SE,138,10.8,15.0,71,0.00,CLR,SKC,0.00,WeatherDisplay:10.37,2013-01-27 10:29:00,
2013-01-27 04:34:00,25.0,16.9,29.87,SSE,153,10.8,15.0,71,0.00,CLR,SKC,0.00,WeatherDisplay:10.37,2013-01-27 10:34:00,
2013-01-27 04:39:00,25.1,17.0,29.87,SSE,157,12.1,15.0,71,0.00,CLR,SKC,0.00,WeatherDisplay:10.37,2013-01-27 10:39:00,
2013-01-27 04:44:00,25.3,17.2,29.87,SE,146,10.5,13.0,71,0.00,BKN,SKC,0.00,WeatherDisplay:10.37,2013-01-27 10:44:00,
2013-01-27 04:49:00,25.6,17.5,29.87,SE,142,10.7,14.0,71,0.00,BKN,SKC,0.00,WeatherDisplay:10.37,2013-01-27 10:49:00,
2013-01-27 04:54:00,25.8,17.4,29.87,SSE,148,11.1,14.0,70,0.00,BKN,SKC,0.00,WeatherDisplay:10.37,2013-01-27 10:54:00,
2013-01-27 04:59:00,25.9,17.5,29.87,SSE,147,9.8,12.0,70,0.00,BKN,SKC,0.00,WeatherDisplay:10.37,2013-01-27 10:59:00,
2013-01-27 05:04:00,26.1,17.6,29.86,SSE,148,11.1,14.0,70,0.00,BKN,SKC,0.00,WeatherDisplay:10.37,2013-01-27 11:04:00,
2013-01-27 05:09:00,26.5,17.7,29.86,SSE,164,11.5,13.8,69,0.00,BKN,SKC,0.00,WeatherDisplay:10.37,2013-01-27 11:09:00,
2013-01-27 05:14:00,27.0,17.8,29.86,SSE,156,11.3,15.0,68,0.00,BKN,SKC,0.00,WeatherDisplay:10.37,2013-01-27 11:14:00,
2013-01-27 05:19:00,26.9,17.7,29.86,SE,143,10.6,16.1,68,0.00,BKN,SKC,0.00,WeatherDisplay:10.37,2013-01-27 11:19:00,
2013-01-27 05:24:00,26.9,18.1,29.86,SSE,151,11.6,15.0,69,0.00,BKN,SKC,0.00,WeatherDisplay:10.37,2013-01-27 11:24:00,
2013-01-27 05:29:00,27.0,17.8,29.86,SE,146,13.3,17.3,68,0.00,BKN,SKC,0.00,WeatherDisplay:10.37,2013-01-27 11:29:00,
2013-01-27 05:34:00,27.2,18.0,29.85,SE,125,10.3,15.0,68,0.00,BKN,SKC,0.00,WeatherDisplay:10.37,2013-01-27 11:34:00,
2013-01-27 05:39:00,27.1,17.9,29.85,SSE,152,10.4,14.0,68,0.00,BKN,SKC,0.00,WeatherDisplay:10.37,2013-01-27 11:39:00,
2013-01-27 05:44:00,27.0,17.8,29.85,SSE,161,12.2,15.0,68,0.00,SCT,SKC,0.00,WeatherDisplay:10.37,2013-01-27 11:44:00,
2013-01-27 05:49:00,27.1,17.9,29.84,SE,138,12.0,17.3,68,0.00,SCT,SKC,0.00,WeatherDisplay:10.37,2013-01-27 11:49:00,
2013-01-27 05:54:00,27.2,18.0,29.85,SSE,157,11.2,16.1,68,0.00,SCT,SKC,0.00,WeatherDisplay:10.37,2013-01-27 11:54:00,
2013-01-27 05:59:00,27.3,18.1,29.85,SSE,148,11.4,15.0,68,0.00,SCT,SKC,0.00,WeatherDisplay:10.37,2013-01-27 11:59:00,
2013-01-27 06:04:00,27.6,18.1,29.85,SSE,150,13.5,17.3,67,0.00,SCT,SKC,0.00,WeatherDisplay:10.37,2013-01-27 12:04:00,
2013-01-27 06:09:00,27.7,18.2,29.84,SSE,163,12.8,17.3,67,0.00,SCT,SKC,0.00,WeatherDisplay:10.37,2013-01-27 12:09:00,
2013-01-27 06:14:00,27.8,18.3,29.84,South,172,9.8,12.7,67,0.00,SCT,SKC,0.00,WeatherDisplay:10.37,2013-01-27 12:14:00,
2013-01-27 06:19:00,27.9,18.4,29.84,SSE,165,10.5,15.0,67,0.00,SCT,SKC,0.00,WeatherDisplay:10.37,2013-01-27 12:19:00,
2013-01-27 06:24:00,27.9,18.4,29.85,SSE,160,12.0,17.3,67,0.00,BKN,SKC,0.00,WeatherDisplay:10.37,2013-01-27 12:24:00,
2013-01-27 06:29:00,27.9,18.4,29.85,SSE,168,11.9,17.3,67,0.00,BKN,SKC,0.00,WeatherDisplay:10.37,2013-01-27 12:29:00,
2013-01-27 06:34:00,27.9,18.4,29.84,SSE,159,13.8,18.4,67,0.00,BKN,SKC,0.00,WeatherDisplay:10.37,2013-01-27 12:34:00,
2013-01-27 06:39:00,28.0,18.5,29.84,SSE,151,16.1,20.7,67,0.00,BKN,SKC,0.00,WeatherDisplay:10.37,2013-01-27 12:39:00,
2013-01-27 06:44:00,28.2,18.6,29.84,SSE,157,15.9,19.6,67,0.00,OVC,SKC,0.00,WeatherDisplay:10.37,2013-01-27 12:44:00,
2013-01-27 06:49:00,28.2,18.6,29.84,South,178,14.9,18.4,67,0.00,OVC,SKC,0.00,WeatherDisplay:10.37,2013-01-27 12:49:00,
2013-01-27 06:54:00,28.3,18.7,29.84,SSE,148,14.0,19.6,67,0.00,OVC,SKC,0.00,WeatherDisplay:10.37,2013-01-27 12:54:00,
2013-01-27 06:59:00,28.4,18.8,29.84,SSE,165,15.7,19.6,67,0.00,OVC,SKC,0.00,WeatherDisplay:10.37,2013-01-27 12:59:00,
2013-01-27 07:04:00,28.5,18.9,29.84,SSE,167,14.3,19.6,67,0.00,OVC,SKC,0.00,WeatherDisplay:10.37,2013-01-27 13:04:00,
2013-01-27 07:09:00,28.6,19.0,29.83,SSE,157,14.2,21.9,67,0.00,OVC,SKC,0.00,WeatherDisplay:10.37,2013-01-27 13:09:00,
2013-01-27 07:14:00,28.6,19.0,29.83,SE,142,13.3,20.0,67,0.00,OVC,SKC,0.00,WeatherDisplay:10.37,2013-01-27 13:14:00,
2013-01-27 07:19:00,28.7,19.1,29.83,SSE,157,17.0,21.9,67,0.00,OVC,SKC,0.00,WeatherDisplay:10.37,2013-01-27 13:19:00,
2013-01-27 07:24:00,28.7,19.1,29.83,SSE,156,15.3,20.7,67,0.00,OVC,SKC,0.00,WeatherDisplay:10.37,2013-01-27 13:24:00,
2013-01-27 07:29:00,28.8,19.2,29.83,SSE,155,16.8,21.9,67,0.00,OVC,SKC,0.00,WeatherDisplay:10.37,2013-01-27 13:29:00,
2013-01-27 07:34:00,28.9,19.3,29.83,SSE,161,16.9,22.0,67,0.00,OVC,SKC,0.00,WeatherDisplay:10.37,2013-01-27 13:34:00,
2013-01-27 07:40:00,28.9,19.3,29.82,SSE,159,16.5,20.0,67,0.00,OVC,SKC,0.00,WeatherDisplay:10.37,2013-01-27 13:40:00,
2013-01-27 07:46:00,29.0,19.4,29.82,SSE,147,15.6,20.7,67,0.00,OVC,SKC,0.00,WeatherDisplay:10.37,2013-01-27 13:46:00,
2013-01-27 07:51:00,29.1,19.5,29.82,SE,145,15.5,19.6,67,0.00,OVC,SKC,0.00,WeatherDisplay:10.37,2013-01-27 13:51:00,
2013-01-27 07:56:00,29.2,19.6,29.82,SSE,165,15.2,18.4,67,0.00,OVC,SKC,0.00,WeatherDisplay:10.37,2013-01-27 13:56:00,
2013-01-27 08:01:00,29.2,19.6,29.82,SSE,159,14.1,22.0,67,0.00,OVC,SKC,0.00,WeatherDisplay:10.37,2013-01-27 14:01:00,
2013-01-27 08:06:00,29.3,19.7,29.81,SE,146,14.8,18.4,67,0.00,OVC,SKC,0.00,WeatherDisplay:10.37,2013-01-27 14:06:00,
2013-01-27 08:11:00,29.4,20.1,29.81,SSE,156,15.6,20.7,68,0.00,OVC,SKC,0.00,WeatherDisplay:10.37,2013-01-27 14:11:00,
2013-01-27 08:16:00,29.5,20.2,29.81,SSE,164,16.0,19.6,68,0.00,OVC,SKC,0.00,WeatherDisplay:10.37,2013-01-27 14:16:00,
2013-01-27 08:21:00,29.4,20.5,29.80,SSE,151,17.4,26.0,69,0.00,-SN,SKC,0.00,WeatherDisplay:10.37,2013-01-27 14:21:00,
2013-01-27 08:26:00,29.2,21.0,29.80,SSE,164,14.8,19.6,71,0.00,-SN,SKC,0.00,WeatherDisplay:10.37,2013-01-27 14:26:00,
2013-01-27 08:31:00,29.0,21.1,29.79,SSE,149,16.8,21.0,72,0.00,-SN,SKC,0.00,WeatherDisplay:10.37,2013-01-27 14:31:00,
2013-01-27 08:36:00,29.0,21.4,29.79,SSE,151,16.3,23.0,73,0.00,-SN,SKC,0.00,WeatherDisplay:10.37,2013-01-27 14:36:00,
2013-01-27 08:41:00,29.0,21.4,29.79,SE,145,15.1,22.0,73,0.00,BKN,SKC,0.00,WeatherDisplay:10.37,2013-01-27 14:41:00,
2013-01-27 08:46:00,29.2,21.9,29.78,SSE,162,15.1,19.6,74,0.00,BKN,SKC,0.00,WeatherDisplay:10.37,2013-01-27 14:46:00,
2013-01-27 08:51:00,29.2,21.9,29.78,SE,138,14.0,20.0,74,0.00,BKN,SKC,0.00,WeatherDisplay:10.37,2013-01-27 14:51:00,
2013-01-27 08:56:00,29.1,21.8,29.78,SSE,155,15.2,19.6,74,0.00,BKN,SKC,0.00,WeatherDisplay:10.37,2013-01-27 14:56:00,
2013-01-27 09:01:00,29.1,21.8,29.77,SE,134,12.1,17.3,74,0.00,-SN,SKC,0.00,WeatherDisplay:10.37,2013-01-27 15:01:00,
2013-01-27 09:06:00,29.1,21.8,29.78,SSE,148,11.4,17.3,74,0.00,-SN,SKC,0.00,WeatherDisplay:10.37,2013-01-27 15:06:00,
2013-01-27 09:11:00,29.1,21.8,29.78,SE,146,12.7,17.3,74,0.00,-SN,SKC,0.00,WeatherDisplay:10.37,2013-01-27 15:11:00,
2013-01-27 09:16:00,29.0,21.7,29.78,SE,132,13.7,19.6,74,0.00,-SN,SKC,0.00,WeatherDisplay:10.37,2013-01-27 15:16:00,
2013-01-27 09:21:00,28.9,21.7,29.78,SE,145,16.0,19.6,74,0.00,SCT,SKC,0.00,WeatherDisplay:10.37,2013-01-27 15:21:00,
2013-01-27 09:26:00,28.9,21.7,29.78,SE,141,12.6,17.3,74,0.00,SCT,SKC,0.00,WeatherDisplay:10.37,2013-01-27 15:26:00,
2013-01-27 09:31:00,28.9,22.0,29.78,SE,133,15.4,19.6,75,0.00,SCT,SKC,0.00,WeatherDisplay:10.37,2013-01-27 15:31:00,
2013-01-27 09:36:00,28.8,21.9,29.78,SSE,157,15.8,19.6,75,0.00,SCT,SKC,0.00,WeatherDisplay:10.37,2013-01-27 15:36:00,
2013-01-27 09:41:00,28.9,22.0,29.77,SSE,164,13.8,21.0,75,0.00,SCT,SKC,0.00,WeatherDisplay:10.37,2013-01-27 15:41:00,
2013-01-27 09:46:00,28.9,22.0,29.77,SSE,150,17.4,20.0,75,0.00,SCT,SKC,0.00,WeatherDisplay:10.37,2013-01-27 15:46:00,
2013-01-27 09:51:00,28.9,22.3,29.77,SSE,152,12.7,20.0,76,0.00,SCT,SKC,0.00,WeatherDisplay:10.37,2013-01-27 15:51:00,
2013-01-27 09:56:00,28.9,22.3,29.77,SSE,154,16.3,21.9,76,0.00,SCT,SKC,0.00,WeatherDisplay:10.37,2013-01-27 15:56:00,
2013-01-27 10:01:00,29.1,22.8,29.77,SE,134,12.2,17.3,77,0.00,BKN,SKC,0.00,WeatherDisplay:10.37,2013-01-27 16:01:00,
2013-01-27 10:06:00,29.3,23.3,29.77,SSE,150,12.1,16.1,78,0.00,BKN,SKC,0.00,WeatherDisplay:10.37,2013-01-27 16:06:00,
2013-01-27 10:11:00,29.5,23.2,29.77,SE,133,14.0,19.6,77,0.00,BKN,SKC,0.00,WeatherDisplay:10.37,2013-01-27 16:11:00,
2013-01-27 10:17:00,29.5,23.5,29.77,SSE,148,12.9,18.4,78,0.00,BKN,SKC,0.00,WeatherDisplay:10.37,2013-01-27 16:17:00,
2013-01-27 10:22:00,29.5,23.5,29.76,SSE,150,14.5,18.4,78,0.00,OVC,SKC,0.00,WeatherDisplay:10.37,2013-01-27 16:22:00,
2013-01-27 10:27:00,29.6,23.6,29.76,SE,139,13.6,17.3,78,0.00,OVC,SKC,0.00,WeatherDisplay:10.37,2013-01-27 16:27:00,
2013-01-27 10:33:00,29.8,24.1,29.76,SE,125,11.3,17.3,79,0.00,OVC,SKC,0.00,WeatherDisplay:10.37,2013-01-27 16:33:00,
2013-01-27 10:38:00,29.9,24.2,29.76,SE,136,12.1,15.0,79,0.00,OVC,SKC,0.00,WeatherDisplay:10.37,2013-01-27 16:38:00,
2013-01-27 10:43:00,30.0,24.3,29.75,SSE,153,12.0,16.1,79,0.00,OVC,SKC,0.00,WeatherDisplay:10.37,2013-01-27 16:43:00,
2013-01-27 10:48:00,30.1,24.4,29.75,ESE,114,10.5,15.0,79,0.01,RA,SKC,0.01,WeatherDisplay:10.37,2013-01-27 16:48:00,
2013-01-27 10:53:00,30.1,24.7,29.75,SE,145,8.9,12.0,80,0.01,RA,SKC,0.01,WeatherDisplay:10.37,2013-01-27 16:53:00,
2013-01-27 10:58:00,30.1,24.7,29.75,SSE,151,11.9,15.0,80,0.01,OVC,SKC,0.01,WeatherDisplay:10.37,2013-01-27 16:58:00,
2013-01-27 11:03:00,30.3,24.9,29.75,SSE,154,9.6,12.0,80,0.01,OVC,SKC,0.01,WeatherDisplay:10.37,2013-01-27 17:03:00,
2013-01-27 11:08:00,30.4,25.0,29.75,SSE,165,9.5,16.1,80,0.01,OVC,SKC,0.01,WeatherDisplay:10.37,2013-01-27 17:08:00,
2013-01-27 11:13:00,30.5,25.1,29.74,SE,134,8.5,11.5,80,0.02,RA,SKC,0.02,WeatherDisplay:10.37,2013-01-27 17:13:00,
2013-01-27 11:18:00,30.6,25.2,29.74,SE,142,9.3,12.7,80,0.02,RA,SKC,0.02,WeatherDisplay:10.37,2013-01-27 17:18:00,
2013-01-27 11:23:00,30.6,25.2,29.74,SE,146,8.3,11.5,80,0.02,OVC,SKC,0.02,WeatherDisplay:10.37,2013-01-27 17:23:00,
2013-01-27 11:28:00,30.6,25.2,29.74,South,171,7.8,11.5,80,0.02,OVC,SKC,0.02,WeatherDisplay:10.37,2013-01-27 17:28:00,
2013-01-27 11:33:00,30.7,25.3,29.74,SSE,159,7.6,10.4,80,0.03,RA,SKC,0.03,WeatherDisplay:10.37,2013-01-27 17:33:00,
2013-01-27 11:38:00,30.8,25.7,29.73,South,171,7.6,10.4,81,0.04,RA,SKC,0.04,WeatherDisplay:10.37,2013-01-27 17:38:00,
2013-01-27 11:43:00,30.8,25.7,29.72,SSE,148,6.1,10.4,81,0.04,RA,SKC,0.04,WeatherDisplay:10.37,2013-01-27 17:43:00,
2013-01-27 11:48:00,30.9,25.8,29.73,SSE,160,6.0,10.4,81,0.03,OVC,SKC,0.04,WeatherDisplay:10.37,2013-01-27 17:48:00,
2013-01-27 11:53:00,30.8,25.4,29.73,SSE,150,7.1,10.4,80,0.03,OVC,SKC,0.04,WeatherDisplay:10.37,2013-01-27 17:53:00,
2013-01-27 11:58:00,30.9,25.8,29.73,SSE,165,7.3,10.4,81,0.03,OVC,SKC,0.04,WeatherDisplay:10.37,2013-01-27 17:58:00,
2013-01-27 12:03:00,31.0,25.9,29.73,SSE,150,5.7,8.1,81,0.04,RA,SKC,0.05,WeatherDisplay:10.37,2013-01-27 18:03:00,
2013-01-27 12:08:00,31.0,25.9,29.72,SSE,156,4.5,8.1,81,0.05,RA,SKC,0.06,WeatherDisplay:10.37,2013-01-27 18:08:00,
2013-01-27 12:13:00,31.1,26.0,29.72,SSE,163,5.0,7.0,81,0.05,RA,SKC,0.07,WeatherDisplay:10.37,2013-01-27 18:13:00,
2013-01-27 12:18:00,31.0,25.9,29.72,South,175,4.8,7.0,81,0.05,RA,SKC,0.07,WeatherDisplay:10.37,2013-01-27 18:18:00,
2013-01-27 12:23:00,31.1,26.0,29.72,SSE,150,0.0,0.0,81,0.05,OVC,SKC,0.07,WeatherDisplay:10.37,2013-01-27 18:23:00,
2013-01-27 12:28:00,31.1,26.0,29.72,SSE,159,0.0,0.0,81,0.06,RA,SKC,0.08,WeatherDisplay:10.37,2013-01-27 18:28:00,
2013-01-27 12:33:00,31.1,26.0,29.71,SSE,168,0.0,0.0,81,0.05,RA,SKC,0.08,WeatherDisplay:10.37,2013-01-27 18:33:00,
2013-01-27 12:38:00,31.1,26.0,29.71,SSE,162,0.0,0.0,81,0.04,OVC,SKC,0.08,WeatherDisplay:10.37,2013-01-27 18:38:00,
2013-01-27 12:43:00,31.0,25.9,29.70,SSE,152,0.0,0.0,81,0.04,OVC,SKC,0.08,WeatherDisplay:10.37,2013-01-27 18:43:00,
2013-01-27 12:48:00,31.0,25.9,29.69,SSE,165,0.0,0.0,81,0.04,OVC,SKC,0.08,WeatherDisplay:10.37,2013-01-27 18:48:00,
2013-01-27 12:53:00,31.0,25.9,29.69,SE,136,0.0,0.0,81,0.04,OVC,SKC,0.08,WeatherDisplay:10.37,2013-01-27 18:53:00,
2013-01-27 12:58:00,31.0,25.9,29.69,SE,135,0.0,0.0,81,0.04,OVC,SKC,0.08,WeatherDisplay:10.37,2013-01-27 18:58:00,
2013-01-27 13:03:00,30.9,25.8,29.68,SSE,153,0.0,0.0,81,0.03,-SN,SKC,0.08,WeatherDisplay:10.37,2013-01-27 19:03:00,
2013-01-27 13:08:00,30.9,25.8,29.68,SSE,164,0.0,0.0,81,0.02,-SN,SKC,0.08,WeatherDisplay:10.37,2013-01-27 19:08:00,
2013-01-27 13:13:00,30.8,25.7,29.67,SSE,151,0.0,0.0,81,0.01,-SN,SKC,0.08,WeatherDisplay:10.37,2013-01-27 19:13:00,
2013-01-27 13:18:00,30.8,25.7,29.67,SSE,157,0.0,0.0,81,0.01,-SN,SKC,0.08,WeatherDisplay:10.37,2013-01-27 19:18:00,
2013-01-27 13:23:00,30.8,25.7,29.67,SE,139,0.0,0.0,81,0.01,-SN,SKC,0.08,WeatherDisplay:10.37,2013-01-27 19:23:00,
2013-01-27 13:28:00,30.8,25.7,29.66,SE,139,0.0,0.0,81,0.00,-SN,SKC,0.08,WeatherDisplay:10.37,2013-01-27 19:28:00,
2013-01-27 13:33:00,30.8,26.0,29.66,SE,139,0.0,0.0,82,0.00,-SN,SKC,0.08,WeatherDisplay:10.37,2013-01-27 19:33:00,
2013-01-27 13:38:00,30.8,26.0,29.66,SE,139,0.0,0.0,82,0.00,-SN,SKC,0.08,WeatherDisplay:10.37,2013-01-27 19:38:00,
2013-01-27 13:43:00,30.8,26.0,29.66,SE,139,0.0,0.0,82,0.00,-SN,SKC,0.08,WeatherDisplay:10.37,2013-01-27 19:43:00,
2013-01-27 13:48:00,30.8,26.0,29.66,SE,139,0.0,0.0,82,0.00,-SN,SKC,0.08,WeatherDisplay:10.37,2013-01-27 19:48:00,
2013-01-27 13:53:00,30.8,25.7,29.65,SE,139,0.0,0.0,81,0.00,-SN,SKC,0.08,WeatherDisplay:10.37,2013-01-27 19:53:00,
2013-01-27 13:58:00,30.8,25.7,29.65,SE,139,0.0,0.0,81,0.00,-SN,SKC,0.08,WeatherDisplay:10.37,2013-01-27 19:58:00,
2013-01-27 14:03:00,30.8,25.7,29.66,SE,139,0.0,0.0,81,0.00,-SN,SKC,0.08,WeatherDisplay:10.37,2013-01-27 20:03:00,
2013-01-27 14:08:00,30.9,26.1,29.65,SE,139,0.0,0.0,82,0.00,-SN,SKC,0.08,WeatherDisplay:10.37,2013-01-27 20:08:00,
2013-01-27 14:13:00,30.9,26.1,29.65,SE,139,0.0,0.0,82,0.00,-SN,SKC,0.08,WeatherDisplay:10.37,2013-01-27 20:13:00,
2013-01-27 14:18:00,31.0,26.1,29.65,SE,139,0.0,0.0,82,0.00,-SN,SKC,0.08,WeatherDisplay:10.37,2013-01-27 20:18:00,
2013-01-27 14:23:00,31.0,26.1,29.65,SE,139,0.0,0.0,82,0.00,-SN,SKC,0.08,WeatherDisplay:10.37,2013-01-27 20:23:00,
2013-01-27 14:28:00,31.0,26.1,29.65,SE,139,0.0,0.0,82,0.00,-SN,SKC,0.08,WeatherDisplay:10.37,2013-01-27 20:28:00,
2013-01-27 14:33:00,31.1,26.2,29.64,SE,139,0.0,0.0,82,0.00,-SN,SKC,0.08,WeatherDisplay:10.37,2013-01-27 20:33:00,
2013-01-27 14:38:00,31.0,26.1,29.64,SE,139,0.0,0.0,82,0.00,-SN,SKC,0.08,WeatherDisplay:10.37,2013-01-27 20:38:00,
2013-01-27 14:43:00,31.0,26.1,29.63,SE,139,0.0,0.0,82,0.00,OVC,SKC,0.08,WeatherDisplay:10.37,2013-01-27 20:43:00,
2013-01-27 14:48:00,31.0,26.1,29.63,SE,139,0.0,0.0,82,0.00,OVC,SKC,0.08,WeatherDisplay:10.37,2013-01-27 20:48:00,
2013-01-27 14:53:00,31.0,26.1,29.63,SE,139,0.0,0.0,82,0.00,OVC,SKC,0.08,WeatherDisplay:10.37,2013-01-27 20:53:00,
2013-01-27 14:58:00,31.0,26.1,29.63,SE,139,0.0,0.0,82,0.00,OVC,SKC,0.08,WeatherDisplay:10.37,2013-01-27 20:58:00,
2013-01-27 15:03:00,31.0,26.1,29.63,SE,138,0.0,0.0,82,0.00,OVC,SKC,0.08,WeatherDisplay:10.37,2013-01-27 21:03:00,
2013-01-27 15:08:00,31.0,26.1,29.63,SE,139,0.0,0.0,82,0.00,OVC,SKC,0.08,WeatherDisplay:10.37,2013-01-27 21:08:00,
2013-01-27 15:13:00,31.0,26.1,29.63,SE,139,0.0,0.0,82,0.00,OVC,SKC,0.08,WeatherDisplay:10.37,2013-01-27 21:13:00,
2013-01-27 15:18:00,31.0,25.9,29.63,SE,139,0.0,0.0,81,0.00,OVC,SKC,0.08,WeatherDisplay:10.37,2013-01-27 21:18:00,
2013-01-27 15:23:00,31.0,26.1,29.62,SE,139,0.0,0.0,82,0.00,OVC,SKC,0.08,WeatherDisplay:10.37,2013-01-27 21:23:00,
2013-01-27 15:28:00,31.0,26.1,29.63,SE,139,0.0,0.0,82,0.00,OVC,SKC,0.08,WeatherDisplay:10.37,2013-01-27 21:28:00,
2013-01-27 15:33:00,31.0,26.1,29.63,SE,139,0.0,0.0,82,0.00,OVC,SKC,0.08,WeatherDisplay:10.37,2013-01-27 21:33:00,
2013-01-27 15:38:00,31.0,26.1,29.62,SE,139,0.0,0.0,82,0.00,OVC,SKC,0.08,WeatherDisplay:10.37,2013-01-27 21:38:00,
2013-01-27 15:43:00,31.0,26.1,29.63,SE,139,0.0,0.0,82,0.00,OVC,SKC,0.08,WeatherDisplay:10.37,2013-01-27 21:43:00,
2013-01-27 15:48:00,31.0,25.9,29.62,SE,139,0.0,0.0,81,0.00,OVC,SKC,0.08,WeatherDisplay:10.37,2013-01-27 21:48:00,
2013-01-27 15:53:00,31.0,25.9,29.62,SE,139,0.0,0.0,81,0.00,OVC,SKC,0.08,WeatherDisplay:10.37,2013-01-27 21:53:00,
2013-01-27 15:58:00,31.0,26.1,29.62,SE,139,0.0,0.0,82,0.00,OVC,SKC,0.08,WeatherDisplay:10.37,2013-01-27 21:58:00,
2013-01-27 16:03:00,31.0,26.1,29.62,SE,139,0.0,0.0,82,0.00,OVC,SKC,0.08,WeatherDisplay:10.37,2013-01-27 22:03:00,
2013-01-27 16:08:00,31.0,26.1,29.62,SE,139,0.0,0.0,82,0.00,OVC,SKC,0.08,WeatherDisplay:10.37,2013-01-27 22:08:00,
2013-01-27 16:13:00,31.0,26.1,29.62,SE,139,0.0,0.0,82,0.00,OVC,SKC,0.08,WeatherDisplay:10.37,2013-01-27 22:13:00,
2013-01-27 16:18:00,31.0,26.1,29.62,SE,139,0.0,0.0,82,0.00,OVC,SKC,0.08,WeatherDisplay:10.37,2013-01-27 22:18:00,
2013-01-27 16:23:00,31.0,26.1,29.62,SE,139,0.0,0.0,82,0.00,OVC,SKC,0.08,WeatherDisplay:10.37,2013-01-27 22:23:00,
2013-01-27 16:28:00,31.0,26.1,29.61,SE,139,0.0,0.0,82,0.00,OVC,SKC,0.08,WeatherDisplay:10.37,2013-01-27 22:28:00,
2013-01-27 16:33:00,31.0,26.1,29.61,SE,139,0.0,0.0,82,0.00,OVC,SKC,0.08,WeatherDisplay:10.37,2013-01-27 22:33:00,
2013-01-27 16:38:00,31.0,26.1,29.61,SE,139,0.0,0.0,82,0.00,OVC,SKC,0.08,WeatherDisplay:10.37,2013-01-27 22:38:00,
2013-01-27 16:43:00,31.0,26.1,29.61,SE,139,0.0,0.0,82,0.00,OVC,SKC,0.08,WeatherDisplay:10.37,2013-01-27 22:43:00,
2013-01-27 16:48:00,31.0,26.1,29.61,SE,139,0.0,0.0,82,0.00,OVC,SKC,0.08,WeatherDisplay:10.37,2013-01-27 22:48:00,
2013-01-27 16:53:00,31.0,26.1,29.61,SE,139,0.0,0.0,82,0.00,OVC,SKC,0.08,WeatherDisplay:10.37,2013-01-27 22:53:00,
2013-01-27 16:58:00,31.0,26.1,29.61,SE,139,0.0,0.0,82,0.00,OVC,SKC,0.08,WeatherDisplay:10.37,2013-01-27 22:58:00,
2013-01-27 17:03:00,31.0,26.1,29.60,SE,139,0.0,0.0,82,0.00,OVC,SKC,0.08,WeatherDisplay:10.37,2013-01-27 23:03:00,
2013-01-27 17:08:00,31.0,26.1,29.60,SE,139,0.0,0.0,82,0.00,OVC,SKC,0.08,WeatherDisplay:10.37,2013-01-27 23:08:00,
2013-01-27 17:13:00,31.0,26.1,29.60,SE,139,0.0,0.0,82,0.00,OVC,SKC,0.08,WeatherDisplay:10.37,2013-01-27 23:13:00,
2013-01-27 17:18:00,31.0,26.1,29.60,SE,139,0.0,0.0,82,0.00,OVC,SKC,0.08,WeatherDisplay:10.37,2013-01-27 23:18:00,
2013-01-27 17:24:00,31.1,26.2,29.60,SE,139,0.0,0.0,82,0.00,OVC,SKC,0.08,WeatherDisplay:10.37,2013-01-27 23:24:00,
2013-01-27 17:29:00,31.0,26.1,29.60,SE,139,0.0,0.0,82,0.00,OVC,SKC,0.08,WeatherDisplay:10.37,2013-01-27 23:29:00,
2013-01-27 17:35:00,31.1,26.2,29.59,SE,139,0.0,0.0,82,0.00,OVC,SKC,0.08,WeatherDisplay:10.37,2013-01-27 23:35:00,
2013-01-27 17:40:00,31.1,26.2,29.60,SE,139,0.0,0.0,82,0.00,OVC,SKC,0.08,WeatherDisplay:10.37,2013-01-27 23:40:00,
2013-01-27 17:45:00,31.1,26.2,29.60,SE,139,0.0,0.0,82,0.00,OVC,SKC,0.08,WeatherDisplay:10.37,2013-01-27 23:45:00,
2013-01-27 17:50:00,31.1,26.2,29.60,SE,139,0.0,0.0,82,0.00,OVC,SKC,0.08,WeatherDisplay:10.37,2013-01-27 23:50:00,
2013-01-27 17:55:00,31.0,26.1,29.60,SE,139,0.0,0.0,82,0.00,OVC,SKC,0.08,WeatherDisplay:10.37,2013-01-27 23:55:00,
2013-01-27 18:00:00,31.1,26.2,29.60,SE,139,0.0,0.0,82,0.00,OVC,SKC,0.08,WeatherDisplay:10.37,2013-01-28 00:00:00,
2013-01-27 18:05:00,31.1,26.2,29.60,SE,139,0.0,0.0,82,0.00,OVC,SKC,0.08,WeatherDisplay:10.37,2013-01-28 00:05:00,
2013-01-27 18:11:00,31.1,26.2,29.60,SE,139,0.0,0.0,82,0.00,OVC,SKC,0.08,WeatherDisplay:10.37,2013-01-28 00:11:00,
2013-01-27 18:16:00,31.1,26.2,29.60,SE,139,0.0,0.0,82,0.00,OVC,SKC,0.08,WeatherDisplay:10.37,2013-01-28 00:16:00,
2013-01-27 18:21:00,31.1,26.2,29.59,SE,139,0.0,0.0,82,0.00,OVC,SKC,0.08,WeatherDisplay:10.37,2013-01-28 00:21:00,
2013-01-27 18:26:00,31.1,26.2,29.59,SE,139,0.0,0.0,82,0.00,OVC,SKC,0.08,WeatherDisplay:10.37,2013-01-28 00:26:00,
2013-01-27 18:31:00,31.1,26.2,29.59,SE,139,0.0,0.0,82,0.00,OVC,SKC,0.08,WeatherDisplay:10.37,2013-01-28 00:31:00,
2013-01-27 18:36:00,31.1,26.2,29.59,SE,139,0.0,0.0,82,0.00,OVC,SKC,0.08,WeatherDisplay:10.37,2013-01-28 00:36:00,
2013-01-27 18:41:00,31.1,26.2,29.59,SE,139,0.0,0.0,82,0.00,OVC,SKC,0.08,WeatherDisplay:10.37,2013-01-28 00:41:00,
2013-01-27 18:46:00,31.1,26.2,29.59,SE,139,0.0,0.0,82,0.00,OVC,SKC,0.08,WeatherDisplay:10.37,2013-01-28 00:46:00,
2013-01-27 18:51:00,31.1,26.2,29.60,SE,139,0.0,0.0,82,0.00,OVC,SKC,0.08,WeatherDisplay:10.37,2013-01-28 00:51:00,
2013-01-27 18:56:00,31.1,26.2,29.60,SE,139,0.0,0.0,82,0.00,OVC,SKC,0.08,WeatherDisplay:10.37,2013-01-28 00:56:00,
2013-01-27 19:01:00,31.1,26.2,29.60,SE,139,0.0,0.0,82,0.00,OVC,SKC,0.08,WeatherDisplay:10.37,2013-01-28 01:01:00,
2013-01-27 19:06:00,31.1,26.2,29.60,SE,139,0.0,0.0,82,0.00,OVC,SKC,0.08,WeatherDisplay:10.37,2013-01-28 01:06:00,
2013-01-27 19:11:00,31.1,26.2,29.60,SE,139,0.0,0.0,82,0.00,OVC,SKC,0.08,WeatherDisplay:10.37,2013-01-28 01:11:00,
2013-01-27 19:16:00,31.1,26.2,29.60,SE,139,0.0,0.0,82,0.00,OVC,SKC,0.08,WeatherDisplay:10.37,2013-01-28 01:16:00,
2013-01-27 19:21:00,31.1,26.2,29.59,SE,139,0.0,0.0,82,0.00,OVC,SKC,0.08,WeatherDisplay:10.37,2013-01-28 01:21:00,
2013-01-27 19:26:00,31.1,26.2,29.60,SE,139,0.0,0.0,82,0.00,OVC,SKC,0.08,WeatherDisplay:10.37,2013-01-28 01:26:00,
2013-01-27 19:31:00,31.1,26.5,29.60,SE,139,0.0,0.0,83,0.00,OVC,SKC,0.08,WeatherDisplay:10.37,2013-01-28 01:31:00,
2013-01-27 19:36:00,31.2,26.6,29.60,SE,139,0.0,0.0,83,0.00,OVC,SKC,0.08,WeatherDisplay:10.37,2013-01-28 01:36:00,
2013-01-27 19:41:00,31.2,26.3,29.60,SE,139,0.0,0.0,82,0.00,-SN,SKC,0.08,WeatherDisplay:10.37,2013-01-28 01:41:00,
2013-01-27 19:46:00,31.2,26.3,29.59,SE,139,0.0,0.0,82,0.00,-SN,SKC,0.08,WeatherDisplay:10.37,2013-01-28 01:46:00,
2013-01-27 19:51:00,31.2,26.6,29.59,SE,139,0.0,0.0,83,0.00,-SN,SKC,0.08,WeatherDisplay:10.37,2013-01-28 01:51:00,
2013-01-27 19:56:00,31.2,26.6,29.59,SE,139,0.0,0.0,83,0.00,-SN,SKC,0.08,WeatherDisplay:10.37,2013-01-28 01:56:00,
2013-01-27 20:02:00,31.2,26.6,29.59,SE,139,0.0,0.0,83,0.00,-SN,SKC,0.08,WeatherDisplay:10.37,2013-01-28 02:02:00,
2013-01-27 20:07:00,31.2,26.6,29.60,SE,139,0.0,0.0,83,0.00,-SN,SKC,0.08,WeatherDisplay:10.37,2013-01-28 02:07:00,
2013-01-27 20:12:00,31.2,26.6,29.60,SE,139,0.0,0.0,83,0.00,-SN,SKC,0.08,WeatherDisplay:10.37,2013-01-28 02:12:00,
2013-01-27 20:17:00,31.2,26.6,29.59,SE,139,0.0,0.0,83,0.00,-SN,SKC,0.08,WeatherDisplay:10.37,2013-01-28 02:17:00,
2013-01-27 20:22:00,31.2,26.6,29.59,SE,139,0.0,0.0,83,0.00,OVC,SKC,0.08,WeatherDisplay:10.37,2013-01-28 02:22:00,
2013-01-27 20:27:00,31.2,26.6,29.58,SE,139,0.0,0.0,83,0.00,OVC,SKC,0.08,WeatherDisplay:10.37,2013-01-28 02:27:00,
2013-01-27 20:32:00,31.2,26.6,29.58,SE,139,0.0,0.0,83,0.00,OVC,SKC,0.08,WeatherDisplay:10.37,2013-01-28 02:32:00,
2013-01-27 20:37:00,31.2,26.6,29.58,SE,139,0.0,0.0,83,0.00,OVC,SKC,0.08,WeatherDisplay:10.37,2013-01-28 02:37:00,
2013-01-27 20:42:00,31.2,26.6,29.58,SE,139,0.0,0.0,83,0.00,OVC,SKC,0.08,WeatherDisplay:10.37,2013-01-28 02:42:00,
2013-01-27 20:47:00,31.2,26.6,29.58,SE,139,0.0,0.0,83,0.00,OVC,SKC,0.08,WeatherDisplay:10.37,2013-01-28 02:47:00,
2013-01-27 20:52:00,31.2,26.6,29.58,SE,139,0.0,0.0,83,0.00,OVC,SKC,0.08,WeatherDisplay:10.37,2013-01-28 02:52:00,
2013-01-27 20:57:00,31.2,26.6,29.58,SE,139,0.0,0.0,83,0.00,OVC,SKC,0.08,WeatherDisplay:10.37,2013-01-28 02:57:00,
2013-01-27 21:02:00,31.2,26.6,29.58,SE,139,0.0,0.0,83,0.00,OVC,SKC,0.08,WeatherDisplay:10.37,2013-01-28 03:02:00,
2013-01-27 21:07:00,31.1,26.5,29.58,SE,139,0.0,0.0,83,0.00,OVC,SKC,0.08,WeatherDisplay:10.37,2013-01-28 03:07:00,
2013-01-27 21:12:00,31.1,26.5,29.58,SE,139,0.0,0.0,83,0.00,OVC,SKC,0.08,WeatherDisplay:10.37,2013-01-28 03:12:00,
2013-01-27 21:17:00,31.1,26.5,29.58,SE,139,0.0,0.0,83,0.00,OVC,SKC,0.08,WeatherDisplay:10.37,2013-01-28 03:17:00,
2013-01-27 21:22:00,31.1,26.5,29.58,SE,139,0.0,0.0,83,0.00,OVC,SKC,0.08,WeatherDisplay:10.37,2013-01-28 03:22:00,
2013-01-27 21:27:00,31.1,26.5,29.58,SE,139,0.0,0.0,83,0.00,OVC,SKC,0.08,WeatherDisplay:10.37,2013-01-28 03:27:00,
2013-01-27 21:32:00,31.1,26.5,29.58,SE,139,0.0,0.0,83,0.00,OVC,SKC,0.08,WeatherDisplay:10.37,2013-01-28 03:32:00,
2013-01-27 21:37:00,31.1,26.5,29.58,SE,139,0.0,0.0,83,0.00,OVC,SKC,0.08,WeatherDisplay:10.37,2013-01-28 03:37:00,
2013-01-27 21:42:00,31.1,26.5,29.58,SE,139,0.0,0.0,83,0.00,OVC,SKC,0.08,WeatherDisplay:10.37,2013-01-28 03:42:00,
2013-01-27 21:47:00,31.1,26.5,29.58,SE,139,0.0,0.0,83,0.00,OVC,SKC,0.08,WeatherDisplay:10.37,2013-01-28 03:47:00,
2013-01-27 21:52:00,31.1,26.5,29.58,SE,139,0.0,0.0,83,0.00,OVC,SKC,0.08,WeatherDisplay:10.37,2013-01-28 03:52:00,
2013-01-27 21:57:00,31.1,26.5,29.58,SE,139,0.0,0.0,83,0.00,OVC,SKC,0.08,WeatherDisplay:10.37,2013-01-28 03:57:00,
2013-01-27 22:02:00,31.1,26.5,29.57,SE,139,0.0,0.0,83,0.00,OVC,SKC,0.08,WeatherDisplay:10.37,2013-01-28 04:02:00,
2013-01-27 22:07:00,31.1,26.5,29.57,SE,139,0.0,0.0,83,0.00,OVC,SKC,0.08,WeatherDisplay:10.37,2013-01-28 04:07:00,
2013-01-27 22:12:00,31.1,26.5,29.58,SE,139,0.0,0.0,83,0.00,OVC,SKC,0.08,WeatherDisplay:10.37,2013-01-28 04:12:00,
2013-01-27 22:17:00,31.1,26.5,29.58,SE,139,0.0,0.0,83,0.00,OVC,SKC,0.08,WeatherDisplay:10.37,2013-01-28 04:17:00,
2013-01-27 22:22:00,31.1,26.5,29.58,SE,139,0.0,0.0,83,0.00,OVC,SKC,0.08,WeatherDisplay:10.37,2013-01-28 04:22:00,
2013-01-27 22:27:00,31.1,26.5,29.58,SE,139,0.0,0.0,83,0.00,OVC,SKC,0.08,WeatherDisplay:10.37,2013-01-28 04:27:00,
2013-01-27 22:32:00,31.1,26.5,29.58,SE,139,0.0,0.0,83,0.00,OVC,SKC,0.08,WeatherDisplay:10.37,2013-01-28 04:32:00,
2013-01-27 22:37:00,31.1,26.5,29.58,SE,139,0.0,0.0,83,0.00,OVC,SKC,0.08,WeatherDisplay:10.37,2013-01-28 04:37:00,
2013-01-27 22:42:00,31.1,26.5,29.58,SE,139,0.0,0.0,83,0.00,OVC,SKC,0.08,WeatherDisplay:10.37,2013-01-28 04:42:00,
2013-01-27 22:47:00,31.1,26.5,29.58,SE,139,0.0,0.0,83,0.00,OVC,SKC,0.08,WeatherDisplay:10.37,2013-01-28 04:47:00,
2013-01-27 22:52:00,31.0,26.4,29.57,SE,139,0.0,0.0,83,0.00,OVC,SKC,0.08,WeatherDisplay:10.37,2013-01-28 04:52:00,
2013-01-27 22:57:00,31.0,26.4,29.57,SE,139,0.0,0.0,83,0.00,OVC,SKC,0.08,WeatherDisplay:10.37,2013-01-28 04:57:00,
2013-01-27 23:00:00,31.0,26.4,29.57,SE,139,0.0,0.0,83,0.00,OVC,SKC,0.08,WeatherDisplay:10.37,2013-01-28 05:00:00,
2013-01-27 23:01:00,31.0,26.4,29.58,SE,139,0.0,0.0,83,0.00,OVC,SKC,0.08,WeatherDisplay:10.37,2013-01-28 05:01:00,
2013-01-27 23:03:00,31.0,26.4,29.58,SE,139,0.0,0.0,83,0.00,OVC,SKC,0.08,WeatherDisplay:10.37,2013-01-28 05:03:00,
2013-01-27 23:06:00,31.0,26.4,29.58,SE,139,0.0,0.0,83,0.00,OVC,SKC,0.08,WeatherDisplay:10.37,2013-01-28 05:06:00,
2013-01-27 23:11:00,31.0,26.4,29.58,SE,139,0.0,0.0,83,0.00,OVC,SKC,0.08,WeatherDisplay:10.37,2013-01-28 05:11:00,
2013-01-27 23:16:00,30.9,26.3,29.58,SE,139,0.0,0.0,83,0.00,OVC,SKC,0.08,WeatherDisplay:10.37,2013-01-28 05:16:00,
2013-01-27 23:21:00,30.9,26.3,29.59,SE,139,0.0,0.0,83,0.00,OVC,SKC,0.08,WeatherDisplay:10.37,2013-01-28 05:21:00,
2013-01-27 23:26:00,30.9,26.3,29.59,SE,139,0.0,0.0,83,0.00,OVC,SKC,0.08,WeatherDisplay:10.37,2013-01-28 05:26:00,
2013-01-27 23:31:00,30.8,26.2,29.59,SE,139,0.0,0.0,83,0.00,OVC,SKC,0.08,WeatherDisplay:10.37,2013-01-28 05:31:00,
2013-01-27 23:36:00,30.8,26.2,29.59,SE,139,0.0,0.0,83,0.00,OVC,SKC,0.08,WeatherDisplay:10.37,2013-01-28 05:36:00,
2013-01-27 23:41:00,30.9,26.3,29.58,SE,139,0.0,0.0,83,0.00,OVC,SKC,0.08,WeatherDisplay:10.37,2013-01-28 05:41:00,
2013-01-27 23:46:00,30.9,26.3,29.58,SE,139,0.0,0.0,83,0.00,OVC,SKC,0.08,WeatherDisplay:10.37,2013-01-28 05:46:00,
2013-01-27 23:51:00,30.9,26.3,29.58,SE,139,0.0,0.0,83,0.00,OVC,SKC,0.08,WeatherDisplay:10.37,2013-01-28 05:51:00,
2013-01-27 23:56:00,30.9,26.3,29.58,SE,139,0.0,0.0,83,0.00,OVC,SKC,0.08,WeatherDisplay:10.37,2013-01-28 05:56:00,